createdAt,value
2023-02-04T00:01:52.803Z,30.42
2023-02-04T00:04:41.990Z,26.38
2023-02-04T00:07:31.232Z,30.27
2023-02-04T00:10:22.084Z,26.05
2023-02-04T00:13:11.517Z,32.90
2023-02-04T00:16:00.971Z,31.92
2023-02-04T00:18:50.301Z,34.83
2023-02-04T00:21:39.574Z,20.77
2023-02-04T00:24:28.807Z,21.30
2023-02-04T00:27:19.409Z,20.75
2023-02-04T00:30:10.372Z,19.00
2023-02-04T00:32:59.684Z,23.20
2023-02-04T00:35:49.013Z,31.20
2023-02-04T00:38:38.320Z,29.88
2023-02-04T00:41:27.644Z,22.05
2023-02-04T00:44:18.293Z,21.98
2023-02-04T00:47:07.519Z,21.10
2023-02-04T00:49:56.739Z,22.13
2023-02-04T00:52:45.958Z,26.10
2023-02-04T00:55:35.131Z,21.65
2023-02-04T00:58:24.416Z,20.77
2023-02-04T01:01:15.023Z,23.38
2023-02-04T01:04:04.506Z,19.95
2023-02-04T01:06:53.776Z,38.15
2023-02-04T01:09:43.002Z,26.83
2023-02-04T01:12:32.407Z,23.85
2023-02-04T01:15:23.024Z,39.33
2023-02-04T01:18:14.448Z,31.10
2023-02-04T01:21:04.234Z,37.42
2023-02-04T01:23:53.608Z,22.08
2023-02-04T01:26:42.852Z,28.75
2023-02-04T01:29:33.363Z,27.40
2023-02-04T01:32:22.598Z,25.98
2023-02-04T01:35:13.302Z,20.48
2023-02-04T01:38:02.595Z,23.63
2023-02-04T01:40:51.884Z,29.80
2023-02-04T01:43:41.274Z,26.52
2023-02-04T01:46:30.519Z,22.67
2023-02-04T01:49:20.126Z,21.45
2023-02-04T01:52:12.776Z,24.30
2023-02-04T01:55:02.191Z,26.33
2023-02-04T01:57:53.383Z,22.15
2023-02-04T02:00:42.781Z,19.00
2023-02-04T02:03:32.028Z,35.97
2023-02-04T02:06:21.250Z,25.48
2023-02-04T02:09:12.276Z,21.45
2023-02-04T02:12:04.423Z,23.88
2023-02-04T02:14:54.194Z,23.35
2023-02-04T02:17:44.540Z,34.22
2023-02-04T02:20:34.982Z,33.28
2023-02-04T02:23:30.568Z,25.63
2023-02-04T02:26:23.222Z,21.10
2023-02-04T02:29:13.205Z,30.52
2023-02-04T02:32:02.882Z,22.27
2023-02-04T02:34:52.087Z,27.65
2023-02-04T02:37:41.598Z,31.00
2023-02-04T02:40:31.309Z,40.97
2023-02-04T02:43:25.180Z,30.10
2023-02-04T02:46:14.399Z,26.02
2023-02-04T02:49:03.782Z,22.63
2023-02-04T02:51:53.027Z,27.27
2023-02-04T02:54:43.669Z,24.85
2023-02-04T02:57:35.654Z,22.77
2023-02-04T03:00:30.241Z,35.90
2023-02-04T03:03:25.767Z,27.95
2023-02-04T03:06:18.092Z,21.70
2023-02-04T03:09:07.494Z,23.33
2023-02-04T03:11:56.944Z,34.53
2023-02-04T03:14:46.764Z,31.35
2023-02-04T03:17:37.657Z,26.25
2023-02-04T03:20:31.695Z,32.08
2023-02-04T03:23:22.304Z,22.70
2023-02-04T03:26:11.586Z,25.80
2023-02-04T03:29:01.295Z,36.95
2023-02-04T03:31:50.725Z,35.97
2023-02-04T03:34:41.365Z,28.65
2023-02-04T03:37:30.621Z,28.00
2023-02-04T03:40:20.033Z,32.35
2023-02-04T03:43:09.249Z,27.73
2023-02-04T03:45:58.485Z,25.70
2023-02-04T03:48:47.740Z,33.65
2023-02-04T03:51:38.615Z,27.00
2023-02-04T03:54:27.826Z,31.02
2023-02-04T03:57:17.065Z,25.77
2023-02-04T04:00:07.194Z,32.83
2023-02-04T04:03:01.500Z,28.88
2023-02-04T04:05:50.773Z,29.88
2023-02-04T04:08:41.394Z,32.33
2023-02-04T04:11:30.621Z,34.50
2023-02-04T04:14:19.928Z,29.13
2023-02-04T04:17:09.233Z,27.90
2023-02-04T04:19:58.633Z,33.97
2023-02-04T04:22:48.034Z,34.28
2023-02-04T04:25:38.626Z,32.40
2023-02-04T04:28:28.944Z,30.55
2023-02-04T04:31:18.276Z,29.70
2023-02-04T04:34:07.593Z,30.98
2023-02-04T04:36:56.868Z,31.92
2023-02-04T04:39:46.068Z,38.03
2023-02-04T04:42:36.658Z,40.60
2023-02-04T04:45:25.928Z,39.45
2023-02-04T04:48:15.216Z,27.80
2023-02-04T04:51:04.712Z,28.55
2023-02-04T04:53:54.167Z,26.80
2023-02-04T04:56:43.589Z,27.88
2023-02-04T04:59:34.193Z,35.85
2023-02-04T05:02:23.402Z,42.45
2023-02-04T05:05:13.402Z,30.67
2023-02-04T05:08:02.603Z,32.63
2023-02-04T05:10:51.897Z,32.40
2023-02-04T05:13:41.064Z,30.25
2023-02-04T05:16:32.197Z,32.00
2023-02-04T05:19:21.506Z,32.03
2023-02-04T05:22:10.810Z,28.90
2023-02-04T05:25:00.477Z,33.72
2023-02-04T05:27:50.139Z,30.10
2023-02-04T05:30:39.395Z,37.83
2023-02-04T05:33:29.950Z,27.48
2023-02-04T05:36:19.209Z,36.95
2023-02-04T05:39:08.444Z,32.13
2023-02-04T05:41:57.717Z,29.23
2023-02-04T05:44:46.942Z,26.17
2023-02-04T05:47:36.360Z,37.47
2023-02-04T05:50:27.068Z,26.13
2023-02-04T05:53:30.467Z,32.88
2023-02-04T05:56:19.989Z,41.33
2023-02-04T05:59:09.349Z,40.33
2023-02-04T06:01:58.618Z,32.20
2023-02-04T06:04:47.839Z,28.80
2023-02-04T06:07:38.467Z,38.78
2023-02-04T06:10:27.826Z,32.03
2023-02-04T06:13:17.217Z,28.00
2023-02-04T06:16:06.957Z,36.63
2023-02-04T06:18:56.232Z,28.73
2023-02-04T06:21:46.117Z,32.35
2023-02-04T06:24:36.999Z,28.05
2023-02-04T06:27:26.799Z,34.40
2023-02-04T06:30:17.216Z,28.92
2023-02-04T06:33:06.374Z,33.90
2023-02-04T06:35:55.907Z,26.00
2023-02-04T06:38:46.286Z,32.05
2023-02-04T06:41:36.898Z,26.40
2023-02-04T06:44:26.279Z,31.55
2023-02-04T06:47:15.675Z,37.58
2023-02-04T06:50:05.087Z,25.52
2023-02-04T06:52:54.316Z,26.30
2023-02-04T06:55:43.507Z,29.08
2023-02-04T06:58:34.195Z,29.27
2023-02-04T07:01:23.396Z,38.75
2023-02-04T07:04:12.699Z,31.10
2023-02-04T07:07:01.902Z,35.53
2023-02-04T07:09:51.139Z,29.17
2023-02-04T07:12:40.327Z,26.00
2023-02-04T07:15:31.833Z,25.75
2023-02-04T07:18:21.203Z,28.98
2023-02-04T07:21:10.470Z,28.15
2023-02-04T07:23:59.626Z,27.70
2023-02-04T07:26:48.806Z,27.73
2023-02-04T07:29:38.127Z,33.67
2023-02-04T07:32:32.921Z,29.83
2023-02-04T07:35:22.397Z,24.60
2023-02-04T07:38:11.558Z,32.63
2023-02-04T07:41:00.846Z,25.15
2023-02-04T07:43:50.263Z,26.58
2023-02-04T07:46:39.684Z,36.63
2023-02-04T07:49:30.360Z,29.25
2023-02-04T07:52:19.575Z,23.58
2023-02-04T07:55:10.292Z,24.60
2023-02-04T07:57:59.514Z,25.70
2023-02-04T08:00:48.715Z,28.77
2023-02-04T08:03:38.443Z,26.85
2023-02-04T08:06:30.478Z,34.70
2023-02-04T08:09:19.754Z,32.75
2023-02-04T08:12:09.108Z,42.55
2023-02-04T08:14:58.407Z,37.13
2023-02-04T08:17:47.587Z,31.48
2023-02-04T08:20:36.799Z,35.85
2023-02-04T08:23:27.556Z,29.10
2023-02-04T08:26:16.920Z,34.58
2023-02-04T08:29:06.132Z,35.20
2023-02-04T08:31:55.522Z,35.20
2023-02-04T08:34:45.110Z,51.65
2023-02-04T08:37:34.338Z,23.45
2023-02-04T08:40:24.915Z,34.67
2023-02-04T08:43:14.526Z,23.45
2023-02-04T08:46:03.729Z,22.08
2023-02-04T08:48:52.954Z,25.13
2023-02-04T08:51:42.178Z,46.42
2023-02-04T08:54:31.576Z,26.70
2023-02-04T08:57:22.149Z,31.08
2023-02-04T09:00:14.361Z,31.55
2023-02-04T09:03:03.636Z,34.60
2023-02-04T09:05:53.178Z,32.45
2023-02-04T09:08:43.227Z,38.88
2023-02-04T09:11:32.482Z,27.20
2023-02-04T09:14:23.088Z,25.40
2023-02-04T09:17:12.359Z,50.40
2023-02-04T09:20:01.606Z,23.45
2023-02-04T09:22:50.845Z,25.67
2023-02-04T09:25:40.702Z,37.97
2023-02-04T09:28:29.999Z,28.52
2023-02-04T09:31:20.855Z,34.78
2023-02-04T09:34:10.280Z,31.05
2023-02-04T09:36:59.449Z,47.70
2023-02-04T09:39:48.632Z,48.58
2023-02-04T09:42:37.937Z,26.58
2023-02-04T09:45:29.333Z,32.70
2023-02-04T09:48:20.743Z,30.42
2023-02-04T09:51:13.586Z,40.75
2023-02-04T09:54:09.864Z,32.72
2023-02-04T09:56:59.626Z,32.10
2023-02-04T09:59:50.817Z,37.45
2023-02-04T10:02:39.972Z,36.83
2023-02-04T10:05:33.406Z,25.40
2023-02-04T10:08:29.310Z,27.15
2023-02-04T10:11:21.981Z,30.33
2023-02-04T10:14:18.890Z,32.72
2023-02-04T10:17:10.480Z,35.67
2023-02-04T10:19:59.749Z,35.55
2023-02-04T10:22:53.625Z,48.17
2023-02-04T10:25:42.780Z,64.72
2023-02-04T10:28:36.747Z,31.00
2023-02-04T10:31:37.990Z,56.63
2023-02-04T10:34:39.861Z,38.78
2023-02-04T10:37:30.752Z,79.53
2023-02-04T10:40:33.135Z,87.40
2023-02-04T10:43:24.799Z,37.83
2023-02-04T10:46:14.044Z,47.53
2023-02-04T10:49:06.342Z,29.98
2023-02-04T10:51:57.609Z,42.60
2023-02-04T10:54:47.030Z,28.77
2023-02-04T10:57:41.006Z,46.50
2023-02-04T11:00:31.156Z,47.15
2023-02-04T11:03:25.123Z,34.75
2023-02-04T11:06:19.422Z,42.47
2023-02-04T11:09:13.960Z,33.42
2023-02-04T11:12:03.184Z,34.95
2023-02-04T11:15:00.418Z,28.52
2023-02-04T11:18:05.574Z,28.23
2023-02-04T11:20:58.308Z,55.78
2023-02-04T11:23:47.623Z,45.45
2023-02-04T11:26:40.251Z,41.45
2023-02-04T11:29:38.303Z,50.75
2023-02-04T11:32:39.792Z,63.28
2023-02-04T11:35:30.877Z,41.75
2023-02-04T11:38:28.507Z,56.10
2023-02-04T11:41:30.242Z,45.63
2023-02-04T11:44:19.913Z,42.92
2023-02-04T11:47:10.058Z,51.85
2023-02-04T11:50:14.047Z,47.10
2023-02-04T11:53:03.907Z,58.78
2023-02-04T11:55:53.123Z,61.60
2023-02-04T11:58:42.528Z,50.67
2023-02-04T12:01:34.786Z,72.15
2023-02-04T12:04:26.384Z,46.73
2023-02-04T12:07:27.183Z,74.65
2023-02-04T12:10:25.844Z,54.75
2023-02-04T12:13:19.677Z,104.43
2023-02-04T12:16:09.453Z,61.75
2023-02-04T12:18:59.134Z,62.70
2023-02-04T12:21:48.381Z,98.20
2023-02-04T12:24:38.972Z,72.10
2023-02-04T12:27:28.143Z,49.97
2023-02-04T12:30:18.632Z,56.78
2023-02-04T12:33:08.281Z,53.55
2023-02-04T12:35:57.729Z,65.35
2023-02-04T12:38:46.918Z,71.50
2023-02-04T12:41:37.522Z,73.78
2023-02-04T12:44:26.733Z,74.88
2023-02-04T12:47:15.949Z,61.40
2023-02-04T12:50:05.866Z,51.03
2023-02-04T12:52:58.202Z,64.85
2023-02-04T12:55:47.419Z,64.13
2023-02-04T12:58:37.984Z,70.25
2023-02-04T13:01:27.229Z,57.58
2023-02-04T13:04:16.560Z,89.78
2023-02-04T13:07:07.447Z,50.40
2023-02-04T13:09:57.489Z,55.85
2023-02-04T13:12:47.202Z,60.75
2023-02-04T13:15:37.765Z,66.53
2023-02-04T13:18:27.008Z,86.63
2023-02-04T13:21:16.313Z,67.30
2023-02-04T13:24:05.911Z,89.80
2023-02-04T13:26:58.818Z,67.50
2023-02-04T13:29:47.987Z,62.50
2023-02-04T13:32:38.518Z,51.45
2023-02-04T13:35:27.733Z,54.67
2023-02-04T13:38:17.062Z,62.55
2023-02-04T13:41:06.538Z,53.95
2023-02-04T13:43:56.350Z,63.53
2023-02-04T13:46:45.622Z,68.70
2023-02-04T13:49:36.270Z,56.55
2023-02-04T13:52:25.589Z,58.38
2023-02-04T13:55:14.843Z,66.45
2023-02-04T13:58:04.058Z,56.97
2023-02-04T14:00:57.607Z,68.43
2023-02-04T14:03:47.342Z,54.30
2023-02-04T14:06:43.598Z,55.08
2023-02-04T14:09:32.959Z,56.80
2023-02-04T14:12:22.212Z,56.25
2023-02-04T14:15:11.960Z,52.58
2023-02-04T14:18:01.371Z,57.40
2023-02-04T14:20:50.691Z,55.90
2023-02-04T14:23:41.698Z,62.42
2023-02-04T14:26:31.011Z,63.67
2023-02-04T14:29:20.338Z,82.70
2023-02-04T14:32:09.626Z,85.75
2023-02-04T14:34:58.822Z,121.40
2023-02-04T14:37:48.476Z,100.00
2023-02-04T14:40:39.653Z,67.13
2023-02-04T14:43:29.198Z,173.85
2023-02-04T14:46:18.457Z,102.13
2023-02-04T14:49:07.657Z,97.85
2023-02-04T14:51:57.307Z,40.83
2023-02-04T14:54:46.565Z,62.90
2023-02-04T14:57:37.167Z,45.38
2023-02-04T15:00:26.856Z,46.33
2023-02-04T15:03:16.173Z,39.40
2023-02-04T15:06:06.093Z,50.38
2023-02-04T15:08:55.571Z,50.88
2023-02-04T15:11:44.846Z,45.08
2023-02-04T15:14:35.517Z,53.45
2023-02-04T15:17:24.809Z,54.15
2023-02-04T15:20:14.513Z,51.97
2023-02-04T15:23:03.847Z,58.15
2023-02-04T15:25:57.545Z,49.10
2023-02-04T15:28:46.838Z,78.38
2023-02-04T15:31:37.588Z,45.22
2023-02-04T15:34:26.993Z,59.13
2023-02-04T15:37:16.298Z,38.80
2023-02-04T15:40:06.648Z,88.88
2023-02-04T15:42:56.077Z,28.08
2023-02-04T15:45:45.269Z,41.53
2023-02-04T15:48:35.986Z,56.85
2023-02-04T15:51:25.217Z,26.55
2023-02-04T15:54:14.675Z,21.70
2023-02-04T15:57:03.886Z,47.30
2023-02-04T15:59:53.070Z,43.17
2023-02-04T16:02:42.331Z,79.00
2023-02-04T16:05:33.164Z,65.10
2023-02-04T16:08:22.421Z,95.05
2023-02-04T16:11:11.618Z,209.07
2023-02-04T16:14:00.835Z,73.63
2023-02-04T16:16:50.034Z,84.50
2023-02-04T16:19:39.319Z,88.57
2023-02-04T16:22:29.918Z,58.83
2023-02-04T16:25:19.472Z,99.40
2023-02-04T16:28:08.849Z,25.30
2023-02-04T16:30:58.328Z,72.60
2023-02-04T16:33:47.546Z,31.65
2023-02-04T16:36:37.823Z,31.48
2023-02-04T16:39:28.433Z,45.47
2023-02-04T16:42:17.635Z,33.33
2023-02-04T16:45:07.818Z,27.67
2023-02-04T16:47:57.033Z,32.85
2023-02-04T16:50:46.265Z,30.65
2023-02-04T16:53:35.540Z,73.47
2023-02-04T16:59:19.243Z,66.45
2023-02-04T17:02:08.510Z,34.25
2023-02-04T17:04:57.750Z,48.90
2023-02-04T17:07:47.001Z,35.50
2023-02-04T17:10:54.192Z,30.65
2023-02-04T17:13:44.852Z,42.22
2023-02-04T17:16:34.572Z,41.78
2023-02-04T17:19:24.341Z,45.70
2023-02-04T17:22:13.552Z,38.03
2023-02-04T17:25:02.709Z,30.92
2023-02-04T17:27:53.807Z,26.08
2023-02-04T17:30:44.509Z,42.28
2023-02-04T17:33:34.699Z,34.38
2023-02-04T17:36:23.988Z,32.88
2023-02-04T17:39:13.277Z,24.15
2023-02-04T17:42:02.542Z,35.03
2023-02-04T17:44:51.841Z,28.40
2023-02-04T17:47:42.793Z,31.23
2023-02-04T17:50:33.944Z,31.02
2023-02-04T17:53:23.562Z,30.30
2023-02-04T17:56:14.561Z,34.83
2023-02-04T17:59:03.763Z,35.78
2023-02-04T18:01:53.201Z,41.20
2023-02-04T18:04:43.974Z,42.95
2023-02-04T18:07:33.353Z,49.55
2023-02-04T18:10:29.426Z,50.53
2023-02-04T18:13:21.431Z,45.58
2023-02-04T18:16:26.269Z,54.55
2023-02-04T18:19:21.624Z,36.83
2023-02-04T18:22:16.091Z,44.08
2023-02-04T18:25:15.041Z,51.28
2023-02-04T18:28:15.344Z,36.75
2023-02-04T18:31:18.586Z,42.88
2023-02-04T18:34:21.208Z,48.15
2023-02-04T18:37:30.925Z,38.85
2023-02-04T18:40:32.093Z,36.17
2023-02-04T18:43:27.325Z,50.50
2023-02-04T18:46:26.523Z,42.63
2023-02-04T18:49:25.753Z,46.28
2023-02-04T18:52:20.211Z,60.35
2023-02-04T18:55:25.175Z,51.47
2023-02-04T18:58:29.904Z,51.40
2023-02-04T19:01:27.724Z,52.05
2023-02-04T19:04:23.887Z,50.47
2023-02-04T19:07:14.616Z,49.10
2023-02-04T19:10:28.648Z,35.25
2023-02-04T19:13:22.259Z,50.92
2023-02-04T19:16:24.901Z,40.50
2023-02-04T19:19:36.769Z,45.10
2023-02-04T19:22:38.836Z,48.70
2023-02-04T19:25:35.588Z,52.63
2023-02-04T19:28:30.672Z,44.92
2023-02-04T19:31:20.137Z,44.10
2023-02-04T19:34:26.342Z,48.85
2023-02-04T19:37:24.265Z,44.10
2023-02-04T19:40:28.456Z,46.60
2023-02-04T19:43:24.005Z,45.90
2023-02-04T19:46:24.094Z,37.58
2023-02-04T19:49:23.169Z,39.88
2023-02-04T19:52:44.060Z,33.80
2023-02-04T19:55:37.586Z,45.33
2023-02-04T19:58:38.690Z,46.83
2023-02-04T20:01:28.482Z,49.72
2023-02-04T20:04:21.794Z,49.05
2023-02-04T20:07:20.807Z,54.15
2023-02-04T20:10:24.766Z,51.28
2023-02-04T20:13:20.777Z,47.40
2023-02-04T20:16:39.340Z,43.83
2023-02-04T20:19:37.928Z,40.15
2023-02-04T20:22:45.744Z,45.88
2023-02-04T20:25:41.750Z,46.63
2023-02-04T20:28:41.220Z,51.85
2023-02-04T20:31:41.059Z,44.55
2023-02-04T20:34:30.386Z,46.42
2023-02-04T20:37:27.943Z,51.40
2023-02-04T20:40:22.429Z,47.80
2023-02-04T20:43:15.406Z,43.97
2023-02-04T20:46:08.671Z,44.10
2023-02-04T20:48:59.291Z,49.00
2023-02-04T20:51:48.636Z,48.50
2023-02-04T20:54:38.470Z,49.22
2023-02-04T20:57:27.629Z,58.65
2023-02-04T21:00:29.604Z,64.55
2023-02-04T21:03:24.657Z,37.83
2023-02-04T21:06:25.352Z,30.83
2023-02-04T21:09:25.017Z,38.60
2023-02-04T21:12:14.220Z,30.67
2023-02-04T21:15:03.420Z,37.92
2023-02-04T21:17:52.777Z,36.58
2023-02-04T21:20:42.306Z,41.53
2023-02-04T21:23:32.911Z,32.08
2023-02-04T21:26:22.311Z,31.83
2023-02-04T21:29:11.608Z,34.95
2023-02-04T21:32:00.950Z,42.20
2023-02-04T21:34:50.106Z,34.95
2023-02-04T21:37:39.305Z,36.25
2023-02-04T21:40:30.024Z,32.28
2023-02-04T21:43:19.223Z,36.78
2023-02-04T21:46:08.454Z,29.88
2023-02-04T21:48:58.328Z,34.13
2023-02-04T21:51:47.891Z,37.95
2023-02-04T21:54:37.160Z,36.40
2023-02-04T21:57:28.015Z,29.67
2023-02-04T22:00:18.714Z,40.22
2023-02-04T22:03:12.978Z,34.63
2023-02-04T22:06:02.300Z,30.98
2023-02-04T22:08:51.509Z,36.67
2023-02-04T22:11:40.702Z,28.30
2023-02-04T22:14:31.444Z,31.42
2023-02-04T22:17:20.652Z,36.88
2023-02-04T22:20:12.199Z,40.47
2023-02-04T22:23:01.538Z,39.67
2023-02-04T22:25:50.847Z,26.33
2023-02-04T22:28:40.005Z,28.45
2023-02-04T22:31:30.655Z,33.03
2023-02-04T22:34:19.813Z,29.10
2023-02-04T22:37:09.010Z,32.65
2023-02-04T22:39:58.229Z,29.20
2023-02-04T22:42:47.515Z,27.67
2023-02-04T22:45:36.775Z,30.83
2023-02-04T22:48:27.441Z,27.45
2023-02-04T22:51:16.698Z,24.70
2023-02-04T22:54:06.119Z,23.50
2023-02-04T22:56:57.866Z,28.48
2023-02-04T22:59:47.282Z,29.95
2023-02-04T23:02:36.538Z,28.63
2023-02-04T23:05:27.138Z,23.02
2023-02-04T23:08:17.896Z,22.63
2023-02-04T23:11:07.370Z,22.95
2023-02-04T23:13:56.553Z,20.73
2023-02-04T23:16:47.126Z,25.17
2023-02-04T23:19:36.526Z,22.23
2023-02-04T23:22:27.121Z,23.67
2023-02-04T23:25:16.605Z,25.23
2023-02-04T23:28:06.303Z,28.00
2023-02-04T23:30:55.717Z,21.25
2023-02-04T23:33:44.905Z,21.08
2023-02-04T23:36:36.571Z,20.98
2023-02-04T23:39:27.350Z,22.08
2023-02-04T23:42:16.599Z,21.35
2023-02-04T23:45:06.842Z,22.00
2023-02-04T23:47:55.983Z,24.50
2023-02-04T23:50:47.957Z,26.85
2023-02-04T23:53:37.242Z,22.80
2023-02-04T23:56:28.253Z,19.85
2023-02-04T23:59:17.473Z,20.40
